Time;durP1;ratioP1;P1;durP2;ratioP2;P2;SDS_P1;SDS_P2;PMS_P1;PMS_P2;Temp;Humidity;BMP_temperature;BMP_pressure;BME280_temperature;BME280_humidity;BME280_pressure;Samples;Min_cycle;Max_cycle;Signal;HPM_P1;HPM_P2
2023/06/22 00:02:12;;;;;;;;;;;;;;;17.67;100.00;101854.28;4972860;28;19944;-73
2023/06/22 00:04:37;;;;;;;;;;;;;;;17.62;100.00;101857.38;4969003;28;19930;-74
2023/06/22 00:07:02;;;;;;;;;;;;;;;17.62;100.00;101853.84;4966245;28;19922;-73
2023/06/22 00:09:28;;;;;;;;;;;;;;;17.69;100.00;101858.56;4969123;28;19968;-74
2023/06/22 00:11:53;;;;;;;;;;;;;;;17.71;100.00;101860.28;4967932;28;20368;-73
2023/06/22 00:14:18;;;;;;;;;;;;;;;17.69;100.00;101858.56;4969415;28;20034;-73
2023/06/22 00:16:43;;;;;;;;;;;;;;;17.66;100.00;101856.13;4972184;28;20423;-73
2023/06/22 00:19:11;;;;;;;;;;;;;;;17.69;100.00;101844.97;4966162;28;20283;-73
2023/06/22 00:21:37;;;;;;;;;;;;;;;17.68;100.00;101843.25;4969531;28;19926;-73
2023/06/22 00:24:02;;;;;;;;;;;;;;;17.64;100.00;101851.84;4964064;28;19929;-73
2023/06/22 00:26:28;;;;;;;;;;;;;;;17.57;100.00;101854.28;4969043;28;19926;-73
2023/06/22 00:28:53;;;;;;;;;;;;;;;17.52;100.00;101857.38;4968970;28;20376;-73
2023/06/22 00:31:18;;;;;;;;;;;;;;;17.52;100.00;101861.97;4969666;28;19922;-73
2023/06/22 00:33:43;;;;;;;;;;;;;;;17.46;100.00;101857.09;4969831;28;19922;-73
2023/06/22 00:36:12;;;;;;;;;;;;;;;17.45;100.00;101864.41;4972215;28;20636;-73
2023/06/22 00:38:40;;;;;;;;;;;;;;;17.35;100.00;101860.78;4970027;28;20446;-73
2023/06/22 00:41:05;;;;;;;;;;;;;;;17.27;100.00;101858.78;4962661;28;19991;-73
2023/06/22 00:43:30;;;;;;;;;;;;;;;17.23;100.00;101860.03;4967299;28;19921;-73
2023/06/22 00:45:56;;;;;;;;;;;;;;;17.28;100.00;101863.22;4968730;28;20000;-73
2023/06/22 00:48:21;;;;;;;;;;;;;;;17.31;100.00;101868.38;4971328;28;20016;-73
2023/06/22 00:50:50;;;;;;;;;;;;;;;17.35;100.00;101867.06;4969954;28;20360;-73
2023/06/22 00:53:17;;;;;;;;;;;;;;;17.38;100.00;101866.78;4966482;28;19922;-73
2023/06/22 00:55:46;;;;;;;;;;;;;;;17.42;100.00;101863.78;4967391;28;20320;-73
2023/06/22 00:58:12;;;;;;;;;;;;;;;17.40;100.00;101853.09;4968305;28;20308;-73
2023/06/22 01:00:37;;;;;;;;;;;;;;;17.35;100.00;101850.78;4967896;28;20713;-73
2023/06/22 01:03:03;;;;;;;;;;;;;;;17.30;100.00;101853.06;4967088;28;20433;-72
2023/06/22 01:05:30;;;;;;;;;;;;;;;17.24;100.00;101846.31;4965855;28;20284;-73
2023/06/22 01:08:06;;;;;;;;;;;;;;;17.19;100.00;101845.03;4972055;28;19929;-73
2023/06/22 01:10:45;;;;;;;;;;;;;;;17.16;100.00;101848.03;4971391;28;19960;-72
2023/06/22 01:13:20;;;;;;;;;;;;;;;17.12;100.00;101841.16;4963574;28;19922;-72
2023/06/22 01:15:49;;;;;;;;;;;;;;;17.04;100.00;101834.59;4967388;28;19928;-73
2023/06/22 01:18:14;;;;;;;;;;;;;;;17.03;100.00;101838.28;4967018;28;19992;-73
2023/06/22 01:20:40;;;;;;;;;;;;;;;16.99;100.00;101833.25;4966255;28;20103;-72
2023/06/22 01:23:25;;;;;;;;;;;;;;;16.98;100.00;101842.38;4964665;28;20153;-73
2023/06/22 01:25:54;;;;;;;;;;;;;;;16.84;100.00;101843.59;4966234;28;20422;-73
2023/06/22 01:28:41;;;;;;;;;;;;;;;16.81;100.00;101838.47;4962501;28;20355;-72
2023/06/22 01:31:08;;;;;;;;;;;;;;;16.77;100.00;101846.88;4965612;28;20521;-72
2023/06/22 01:33:35;;;;;;;;;;;;;;;16.75;100.00;101829.88;4965395;28;20380;-72
2023/06/22 01:36:01;;;;;;;;;;;;;;;16.74;100.00;101836.28;4951224;28;19968;-72
2023/06/22 01:38:26;;;;;;;;;;;;;;;16.74;100.00;101838.13;4971175;28;20369;-72
2023/06/22 01:40:51;;;;;;;;;;;;;;;16.75;100.00;101838.00;4966557;28;19926;-72
2023/06/22 01:43:16;;;;;;;;;;;;;;;16.74;100.00;101840.84;4963544;28;19928;-72
2023/06/22 01:45:42;;;;;;;;;;;;;;;16.70;100.00;101840.25;4968188;28;19929;-72
2023/06/22 01:48:07;;;;;;;;;;;;;;;16.75;100.00;101837.13;4965872;28;19922;-72
2023/06/22 01:50:32;;;;;;;;;;;;;;;16.75;100.00;101840.72;4966649;28;20358;-72
2023/06/22 01:52:57;;;;;;;;;;;;;;;16.70;100.00;101837.53;4966970;28;19977;-72
2023/06/22 01:55:23;;;;;;;;;;;;;;;16.64;100.00;101841.66;4967063;28;20008;-72
2023/06/22 01:57:48;;;;;;;;;;;;;;;16.58;100.00;101842.19;4966708;28;19932;-72
2023/06/22 02:00:14;;;;;;;;;;;;;;;16.56;100.00;101849.59;4970127;28;20303;-72
2023/06/22 02:02:43;;;;;;;;;;;;;;;16.62;100.00;101838.22;4971596;28;20049;-72
2023/06/22 02:05:10;;;;;;;;;;;;;;;16.64;100.00;101833.53;4967301;28;20289;-72
2023/06/22 02:07:38;;;;;;;;;;;;;;;16.63;100.00;101834.53;4967753;28;20020;-72
2023/06/22 02:10:04;;;;;;;;;;;;;;;16.62;100.00;101830.09;4976046;28;19917;-72
2023/06/22 02:12:29;;;;;;;;;;;;;;;16.60;100.00;101834.78;4967843;28;20438;-72
2023/06/22 02:14:54;;;;;;;;;;;;;;;16.59;100.00;101835.78;4990610;28;19924;-72
2023/06/22 02:17:20;;;;;;;;;;;;;;;16.55;100.00;101828.91;4972153;28;19922;-72
2023/06/22 02:19:45;;;;;;;;;;;;;;;16.49;100.00;101840.28;4966542;28;19928;-72
2023/06/22 02:22:11;;;;;;;;;;;;;;;16.48;100.00;101835.84;4967828;28;19965;-72
2023/06/22 02:24:36;;;;;;;;;;;;;;;16.49;100.00;101827.59;4973848;28;19929;-72
2023/06/22 02:27:02;;;;;;;;;;;;;;;16.47;100.00;101823.28;4973188;28;19996;-72
2023/06/22 02:29:27;;;;;;;;;;;;;;;16.49;100.00;101818.59;4971920;28;20004;-72
2023/06/22 02:31:53;;;;;;;;;;;;;;;16.47;100.00;101816.03;4970836;28;19928;-72
2023/06/22 02:34:19;;;;;;;;;;;;;;;16.50;100.00;101820.31;4970806;28;20521;-72
2023/06/22 02:36:50;;;;;;;;;;;;;;;16.55;100.00;101814.50;4974137;28;19921;-72
2023/06/22 02:39:17;;;;;;;;;;;;;;;16.56;100.00;101817.06;5004216;23;20351;-72
2023/06/22 02:41:42;;;;;;;;;;;;;;;16.58;100.00;101816.94;4997733;28;19948;-72
2023/06/22 02:44:07;;;;;;;;;;;;;;;16.61;100.00;101820.25;4998079;28;20171;-72
2023/06/22 02:46:32;;;;;;;;;;;;;;;16.65;100.00;101818.13;4995171;28;20430;-72
2023/06/22 02:48:58;;;;;;;;;;;;;;;16.68;100.00;101817.00;4997078;28;20376;-72
2023/06/22 02:51:23;;;;;;;;;;;;;;;16.63;100.00;101806.53;4995848;28;20468;-72
2023/06/22 02:53:56;;;;;;;;;;;;;;;16.61;100.00;101805.81;4997503;28;19932;-72
2023/06/22 02:56:24;;;;;;;;;;;;;;;16.57;100.00;101802.53;5006529;28;19955;-72
2023/06/22 02:58:50;;;;;;;;;;;;;;;16.56;100.00;101805.34;4998641;28;19964;-72
2023/06/22 03:01:15;;;;;;;;;;;;;;;16.52;100.00;101801.22;5008728;28;20439;-72
2023/06/22 03:03:40;;;;;;;;;;;;;;;16.37;100.00;101777.16;4995003;28;20376;-72
2023/06/22 03:06:06;;;;;;;;;;;;;;;16.53;100.00;101800.22;4997584;28;20384;-72
2023/06/22 03:08:31;;;;;;;;;;;;;;;16.51;100.00;101794.94;5000259;28;19973;-72
2023/06/22 03:10:56;;;;;;;;;;;;;;;16.45;100.00;101799.06;5001334;28;20187;-73
2023/06/22 03:13:21;;;;;;;;;;;;;;;16.40;100.00;101801.31;4995022;28;19928;-72
2023/06/22 03:15:46;;;;;;;;;;;;;;;16.37;100.00;101793.44;4999275;28;19922;-72
2023/06/22 03:18:12;;;;;;;;;;;;;;;16.34;100.00;101788.28;4997367;28;20020;-72
2023/06/22 03:20:37;;;;;;;;;;;;;;;16.30;100.00;101781.41;4999602;28;19925;-72
2023/06/22 03:23:02;;;;;;;;;;;;;;;16.24;100.00;101773.84;4998240;28;19924;-72
2023/06/22 03:25:28;;;;;;;;;;;;;;;16.15;100.00;101781.75;4999695;28;19922;-73
2023/06/22 03:27:53;;;;;;;;;;;;;;;16.06;100.00;101787.97;4993712;28;19945;-72
2023/06/22 03:30:18;;;;;;;;;;;;;;;16.04;100.00;101792.66;4991666;28;19929;-72
2023/06/22 03:32:43;;;;;;;;;;;;;;;16.05;100.00;101780.84;4995317;28;20175;-73
2023/06/22 03:35:09;;;;;;;;;;;;;;;16.09;100.00;101792.28;4993423;28;19929;-72
2023/06/22 03:37:34;;;;;;;;;;;;;;;16.08;100.00;101796.81;4996099;28;19964;-72
2023/06/22 03:39:59;;;;;;;;;;;;;;;16.06;100.00;101790.69;4995759;28;20032;-72
2023/06/22 03:42:25;;;;;;;;;;;;;;;16.00;100.00;101792.06;4992807;28;19925;-71
2023/06/22 03:44:50;;;;;;;;;;;;;;;15.91;100.00;101781.19;4997480;28;19932;-72
2023/06/22 03:47:15;;;;;;;;;;;;;;;15.87;100.00;101791.44;5018943;28;19964;-72
2023/06/22 03:49:41;;;;;;;;;;;;;;;15.89;100.00;101789.44;4997393;28;20072;-72
2023/06/22 03:52:06;;;;;;;;;;;;;;;15.92;100.00;101782.91;4995137;28;20517;-72
2023/06/22 03:54:31;;;;;;;;;;;;;;;15.92;100.00;101780.19;5000962;28;20357;-72
2023/06/22 03:56:57;;;;;;;;;;;;;;;15.91;100.00;101782.03;4999283;28;20150;-72
2023/06/22 03:59:22;;;;;;;;;;;;;;;15.94;100.00;101787.19;4985928;28;20379;-72
2023/06/22 04:01:47;;;;;;;;;;;;;;;15.97;100.00;101784.22;5012534;28;19966;-72
2023/06/22 04:04:13;;;;;;;;;;;;;;;16.00;100.00;101783.09;5011408;28;20333;-72
2023/06/22 04:06:38;;;;;;;;;;;;;;;16.00;100.00;101785.81;4998654;28;20363;-72
2023/06/22 04:09:03;;;;;;;;;;;;;;;15.99;100.00;101775.97;4998120;28;20364;-72
2023/06/22 04:11:28;;;;;;;;;;;;;;;16.00;100.00;101774.97;5010937;28;19980;-72
2023/06/22 04:13:54;;;;;;;;;;;;;;;16.04;100.00;101781.81;4990790;28;19980;-71
2023/06/22 04:16:19;;;;;;;;;;;;;;;16.05;100.00;101772.72;4998729;28;20052;-72
2023/06/22 04:18:44;;;;;;;;;;;;;;;16.06;100.00;101784.41;4996888;28;20364;-72
2023/06/22 04:21:10;;;;;;;;;;;;;;;16.04;100.00;101777.28;4996126;28;20043;-72
2023/06/22 04:23:35;;;;;;;;;;;;;;;16.09;100.00;101774.16;4990517;28;19933;-72
2023/06/22 04:26:00;;;;;;;;;;;;;;;16.01;100.00;101750.47;4996226;28;20262;-72
2023/06/22 04:28:25;;;;;;;;;;;;;;;16.25;100.00;101773.69;4994827;28;19964;-72
2023/06/22 04:30:51;;;;;;;;;;;;;;;16.30;100.00;101773.28;4995584;28;19925;-72
2023/06/22 04:33:17;;;;;;;;;;;;;;;16.33;100.00;101773.88;4993799;28;19928;-72
2023/06/22 04:35:44;;;;;;;;;;;;;;;16.42;100.00;101771.38;4997719;28;20245;-71
2023/06/22 04:38:13;;;;;;;;;;;;;;;16.48;100.00;101771.69;5006973;28;19925;-72
2023/06/22 04:40:38;;;;;;;;;;;;;;;16.54;100.00;101767.56;4994735;28;19967;-72
2023/06/22 04:43:03;;;;;;;;;;;;;;;16.61;100.00;101768.72;4990096;28;19929;-72
2023/06/22 04:45:29;;;;;;;;;;;;;;;16.68;100.00;101762.78;5003065;28;19921;-72
2023/06/22 04:47:54;;;;;;;;;;;;;;;16.71;100.00;101757.91;5000362;28;19957;-72
2023/06/22 04:50:21;;;;;;;;;;;;;;;16.69;100.00;101743.63;5005092;28;19917;-72
2023/06/22 04:52:46;;;;;;;;;;;;;;;16.90;100.00;101761.69;4997682;28;20273;-72
2023/06/22 04:55:11;;;;;;;;;;;;;;;17.05;100.00;101763.06;4995892;28;19956;-72
2023/06/22 04:57:39;;;;;;;;;;;;;;;17.24;100.00;101762.19;4994717;28;20012;-72
2023/06/22 05:00:12;;;;;;;;;;;;;;;17.41;100.00;101775.22;4995553;28;20102;-72
2023/06/22 05:02:38;;;;;;;;;;;;;;;17.59;100.00;101772.66;4990781;28;19929;-72
2023/06/22 05:05:06;;;;;;;;;;;;;;;17.72;100.00;101765.09;4992114;28;19975;-72
2023/06/22 05:07:35;;;;;;;;;;;;;;;17.84;100.00;101769.34;5003917;28;19976;-72
2023/06/22 05:10:01;;;;;;;;;;;;;;;17.93;100.00;101769.50;4995253;28;19995;-72
2023/06/22 05:12:27;;;;;;;;;;;;;;;18.03;100.00;101766.78;4991509;28;19921;-72
2023/06/22 05:14:52;;;;;;;;;;;;;;;18.17;100.00;101760.03;4996636;28;20008;-72
2023/06/22 05:17:18;;;;;;;;;;;;;;;18.29;100.00;101759.72;4996752;28;20375;-72
2023/06/22 05:19:44;;;;;;;;;;;;;;;18.42;100.00;101755.78;4997261;28;20240;-72
2023/06/22 05:22:12;;;;;;;;;;;;;;;18.54;100.00;101759.19;5007546;28;20585;-72
2023/06/22 05:24:37;;;;;;;;;;;;;;;18.65;100.00;101763.59;4996229;28;20478;-72
2023/06/22 05:27:02;;;;;;;;;;;;;;;18.72;100.00;101762.81;4997851;28;19921;-72
2023/06/22 05:29:27;;;;;;;;;;;;;;;18.85;100.00;101762.47;4991204;28;19922;-72
2023/06/22 05:31:53;;;;;;;;;;;;;;;18.97;100.00;101765.88;4992335;28;20282;-72
2023/06/22 05:34:18;;;;;;;;;;;;;;;19.11;100.00;101771.78;4992085;28;19921;-72
2023/06/22 05:36:43;;;;;;;;;;;;;;;19.24;100.00;101775.00;4996006;28;19928;-72
2023/06/22 05:39:13;;;;;;;;;;;;;;;19.38;100.00;101770.03;4998003;28;19926;-72
2023/06/22 05:41:38;;;;;;;;;;;;;;;19.51;100.00;101766.91;5011002;28;19929;-72
2023/06/22 05:44:03;;;;;;;;;;;;;;;19.59;100.00;101773.31;4991067;28;19983;-72
2023/06/22 05:46:29;;;;;;;;;;;;;;;19.71;100.00;101775.78;4988928;28;19921;-72
2023/06/22 05:48:54;;;;;;;;;;;;;;;19.88;100.00;101772.19;4988272;28;20011;-71
2023/06/22 05:51:19;;;;;;;;;;;;;;;20.05;100.00;101769.59;4990876;28;20253;-71
2023/06/22 05:53:49;;;;;;;;;;;;;;;20.20;100.00;101767.16;4984565;28;20623;-71
2023/06/22 05:56:14;;;;;;;;;;;;;;;20.35;100.00;101754.63;4986360;28;19972;-71
2023/06/22 05:58:39;;;;;;;;;;;;;;;20.50;100.00;101752.13;4981202;28;20020;-72
2023/06/22 06:01:04;;;;;;;;;;;;;;;20.42;100.00;101726.69;4983388;28;19977;-72
2023/06/22 06:03:30;;;;;;;;;;;;;;;20.59;100.00;101757.66;4979902;28;19968;-75
2023/06/22 06:05:55;;;;;;;;;;;;;;;20.59;100.00;101752.19;4985517;28;20016;-72
2023/06/22 06:08:20;;;;;;;;;;;;;;;20.55;100.00;101759.81;4986507;28;19963;-73
2023/06/22 06:10:46;;;;;;;;;;;;;;;20.64;100.00;101761.59;4986500;28;20458;-73
2023/06/22 06:13:11;;;;;;;;;;;;;;;20.75;100.00;101757.69;4983408;28;20492;-73
2023/06/22 06:15:36;;;;;;;;;;;;;;;20.79;100.00;101759.13;4984863;28;20372;-71
2023/06/22 06:18:04;;;;;;;;;;;;;;;20.93;100.00;101745.84;4983728;28;21699;-72
2023/06/22 06:20:29;;;;;;;;;;;;;;;21.07;100.00;101747.06;5004261;28;19921;-73
2023/06/22 06:22:54;;;;;;;;;;;;;;;21.11;100.00;101746.59;4984920;28;20427;-73
2023/06/22 06:25:21;;;;;;;;;;;;;;;21.09;100.00;101743.16;4983850;28;20332;-73
2023/06/22 06:27:46;;;;;;;;;;;;;;;21.23;100.00;101735.31;4996401;28;20459;-73
2023/06/22 06:30:12;;;;;;;;;;;;;;;21.22;100.00;101734.50;5000877;28;20163;-72
2023/06/22 06:32:38;;;;;;;;;;;;;;;21.27;100.00;101731.25;4983001;28;19925;-73
2023/06/22 06:35:04;;;;;;;;;;;;;;;21.23;100.00;101733.47;4986746;28;19925;-73
2023/06/22 06:37:29;;;;;;;;;;;;;;;21.33;100.00;101733.31;4987332;28;19922;-73
2023/06/22 06:39:54;;;;;;;;;;;;;;;21.39;100.00;101732.63;4987349;28;19929;-73
2023/06/22 06:42:20;;;;;;;;;;;;;;;21.40;100.00;101738.94;4984165;28;20191;-73
2023/06/22 06:44:45;;;;;;;;;;;;;;;21.51;100.00;101740.47;4984688;28;19964;-72
2023/06/22 06:47:10;;;;;;;;;;;;;;;21.57;100.00;101737.06;4988371;28;19964;-73
2023/06/22 06:49:35;;;;;;;;;;;;;;;21.54;100.00;101741.00;4987411;28;20440;-73
2023/06/22 06:52:01;;;;;;;;;;;;;;;21.77;100.00;101736.75;4978793;28;19972;-73
2023/06/22 06:54:27;;;;;;;;;;;;;;;21.84;100.00;101738.66;5000637;28;19980;-74
2023/06/22 06:56:52;;;;;;;;;;;;;;;21.88;100.00;101731.78;4984952;28;19918;-74
2023/06/22 06:59:17;;;;;;;;;;;;;;;21.82;100.00;101726.16;4984709;28;20382;-73
2023/06/22 07:01:44;;;;;;;;;;;;;;;21.83;100.00;101725.13;4985646;28;20364;-74
2023/06/22 07:04:09;;;;;;;;;;;;;;;21.87;100.00;101723.75;4984920;28;20367;-74
2023/06/22 07:06:35;;;;;;;;;;;;;;;21.92;100.00;101715.91;4988511;28;20669;-74
2023/06/22 07:09:00;;;;;;;;;;;;;;;21.92;100.00;101707.69;5001615;28;20008;-74
2023/06/22 07:11:26;;;;;;;;;;;;;;;21.84;100.00;101713.16;4984563;28;19968;-74
2023/06/22 07:13:51;;;;;;;;;;;;;;;21.88;100.00;101723.56;4982684;28;19934;-74
2023/06/22 07:16:16;;;;;;;;;;;;;;;21.91;100.00;101714.19;4984074;28;19963;-73
2023/06/22 07:18:41;;;;;;;;;;;;;;;21.97;100.00;101716.25;4982445;28;20007;-73
2023/06/22 07:21:07;;;;;;;;;;;;;;;22.03;100.00;101711.94;5004662;28;20020;-73
2023/06/22 07:23:32;;;;;;;;;;;;;;;22.13;100.00;101701.66;4990167;28;19921;-73
2023/06/22 07:25:57;;;;;;;;;;;;;;;22.13;100.00;101701.66;4985040;28;19964;-73
2023/06/22 07:28:23;;;;;;;;;;;;;;;22.13;100.00;101704.38;4988465;28;19922;-75
2023/06/22 07:30:48;;;;;;;;;;;;;;;22.19;100.00;101697.38;4987831;28;20403;-73
2023/06/22 07:33:13;;;;;;;;;;;;;;;22.23;100.00;101706.06;4985573;28;20492;-73
2023/06/22 07:35:38;;;;;;;;;;;;;;;22.27;100.00;101699.22;4987175;28;20445;-73
2023/06/22 07:38:04;;;;;;;;;;;;;;;22.42;100.00;101697.44;4992487;28;19968;-74
2023/06/22 07:40:29;;;;;;;;;;;;;;;22.52;100.00;101694.53;4993741;28;20176;-73
2023/06/22 07:42:54;;;;;;;;;;;;;;;22.65;100.00;101698.59;4992360;28;19972;-73
2023/06/22 07:45:20;;;;;;;;;;;;;;;22.70;100.00;101697.00;4989728;28;20564;-74
2023/06/22 07:47:45;;;;;;;;;;;;;;;22.72;100.00;101700.41;5001700;28;19926;-73
2023/06/22 07:50:10;;;;;;;;;;;;;;;22.77;100.00;101700.72;4983664;28;20349;-74
2023/06/22 07:52:36;;;;;;;;;;;;;;;22.91;100.00;101696.38;4988973;28;20453;-74
2023/06/22 07:55:02;;;;;;;;;;;;;;;22.85;100.00;101697.09;5003289;28;19926;-74
2023/06/22 07:57:33;;;;;;;;;;;;;;;22.87;100.00;101695.03;4985656;28;20261;-74
2023/06/22 07:59:58;;;;;;;;;;;;;;;22.93;100.00;101693.44;5001215;28;20450;-74
2023/06/22 08:02:24;;;;;;;;;;;;;;;22.95;100.00;101683.16;4989942;28;19925;-74
2023/06/22 08:04:49;;;;;;;;;;;;;;;23.02;100.00;101677.84;4984523;28;20008;-74
2023/06/22 08:07:14;;;;;;;;;;;;;;;23.21;100.00;101666.41;4983400;28;19922;-74
2023/06/22 08:09:42;;;;;;;;;;;;;;;23.27;100.00;101662.09;4987985;28;20026;-74
2023/06/22 08:12:08;;;;;;;;;;;;;;;23.44;100.00;101656.47;5003679;28;19917;-74
2023/06/22 08:14:36;;;;;;;;;;;;;;;23.67;100.00;101650.94;4987467;28;19932;-74
2023/06/22 08:17:01;;;;;;;;;;;;;;;23.62;100.00;101615.00;5004892;28;19925;-76
2023/06/22 08:19:26;;;;;;;;;;;;;;;23.96;100.00;101649.25;4997035;28;19957;-74
2023/06/22 08:21:51;;;;;;;;;;;;;;;23.95;100.00;101631.97;4984288;28;20024;-73
2023/06/22 08:24:16;;;;;;;;;;;;;;;24.04;100.00;101634.59;4989572;28;19921;-74
2023/06/22 08:26:42;;;;;;;;;;;;;;;23.96;100.00;101638.28;5003457;28;19921;-72
2023/06/22 08:29:07;;;;;;;;;;;;;;;24.00;100.00;101639.63;4984074;28;20015;-73
2023/06/22 08:31:34;;;;;;;;;;;;;;;23.99;100.00;101637.94;4989649;28;19921;-75
2023/06/22 08:33:59;;;;;;;;;;;;;;;24.10;100.00;101629.22;4993401;28;19925;-72
2023/06/22 08:36:24;;;;;;;;;;;;;;;24.23;100.00;101624.94;4977283;28;20422;-72
2023/06/22 08:38:51;;;;;;;;;;;;;;;24.36;100.00;101627.88;5008541;28;20506;-75
2023/06/22 08:41:17;;;;;;;;;;;;;;;24.46;100.00;101623.97;4987274;28;20040;-73
2023/06/22 08:43:44;;;;;;;;;;;;;;;24.50;100.00;101628.03;4997982;28;19921;-72
2023/06/22 08:46:09;;;;;;;;;;;;;;;24.52;98.81;101609.47;4991924;28;19925;-72
2023/06/22 08:48:34;;;;;;;;;;;;;;;24.52;98.03;101610.31;4980513;28;19976;-74
2023/06/22 08:50:59;;;;;;;;;;;;;;;24.64;100.00;101618.03;4981432;28;19929;-74
2023/06/22 08:53:25;;;;;;;;;;;;;;;24.74;100.00;101621.38;4982606;28;19921;-73
2023/06/22 08:55:50;;;;;;;;;;;;;;;24.84;95.58;101618.28;5001770;28;19983;-73
2023/06/22 08:58:15;;;;;;;;;;;;;;;24.96;95.89;101616.69;4991034;28;19979;-73
2023/06/22 09:00:41;;;;;;;;;;;;;;;25.01;95.32;101619.72;5005363;28;19957;-74
2023/06/22 09:03:06;;;;;;;;;;;;;;;25.03;96.68;101614.00;4984914;28;19925;-73
2023/06/22 09:05:31;;;;;;;;;;;;;;;25.08;91.58;101610.69;4984873;28;19932;-74
2023/06/22 09:07:58;;;;;;;;;;;;;;;25.19;92.14;101612.06;5005875;28;19921;-74
2023/06/22 09:10:23;;;;;;;;;;;;;;;25.40;91.99;101611.19;5006999;28;20226;-73
2023/06/22 09:12:49;;;;;;;;;;;;;;;25.36;87.85;101598.88;5000163;28;19929;-74
2023/06/22 09:15:14;;;;;;;;;;;;;;;25.39;92.96;101607.56;5007793;28;19922;-74
2023/06/22 09:17:40;;;;;;;;;;;;;;;25.27;94.99;101604.50;5006071;28;20371;-72
2023/06/22 09:20:05;;;;;;;;;;;;;;;25.31;93.73;101602.19;5007322;28;20265;-73
2023/06/22 09:22:31;;;;;;;;;;;;;;;25.36;91.39;101599.72;5006960;28;19979;-73
2023/06/22 09:24:56;;;;;;;;;;;;;;;25.39;90.31;101595.72;4998857;28;20050;-73
2023/06/22 09:27:22;;;;;;;;;;;;;;;25.27;88.42;101593.50;5008566;28;19921;-73
2023/06/22 09:29:47;;;;;;;;;;;;;;;25.13;89.65;101602.72;5004572;28;20024;-74
2023/06/22 09:32:13;;;;;;;;;;;;;;;24.80;87.56;101598.59;5000407;28;19925;-73
2023/06/22 09:34:38;;;;;;;;;;;;;;;24.60;88.00;101598.38;5007256;28;20328;-73
2023/06/22 09:37:03;;;;;;;;;;;;;;;24.51;86.68;101594.03;5006368;28;21160;-74
2023/06/22 09:39:29;;;;;;;;;;;;;;;24.38;85.08;101592.00;5005274;28;19932;-73
2023/06/22 09:41:54;;;;;;;;;;;;;;;24.23;89.17;101590.13;5003293;28;20008;-74
2023/06/22 09:44:19;;;;;;;;;;;;;;;24.07;91.77;101593.09;5004187;28;19929;-73
2023/06/22 09:46:44;;;;;;;;;;;;;;;24.01;88.97;101589.22;5008202;28;19925;-73
2023/06/22 09:49:09;;;;;;;;;;;;;;;24.01;93.01;101591.09;5001052;28;19928;-72
2023/06/22 09:51:35;;;;;;;;;;;;;;;23.93;91.48;101597.50;5006193;28;19927;-73
2023/06/22 09:54:00;;;;;;;;;;;;;;;23.86;93.22;101591.94;5003110;28;19960;-72
2023/06/22 09:56:28;;;;;;;;;;;;;;;23.76;91.23;101588.63;5003431;28;20008;-73
2023/06/22 09:58:53;;;;;;;;;;;;;;;23.74;94.23;101597.06;5011261;28;19951;-73
2023/06/22 10:01:18;;;;;;;;;;;;;;;23.63;94.20;101595.63;5003928;28;19929;-72
2023/06/22 10:03:43;;;;;;;;;;;;;;;23.51;95.75;101595.25;5002172;28;19925;-73
2023/06/22 10:06:09;;;;;;;;;;;;;;;23.48;94.64;101594.75;5011929;28;20292;-73
2023/06/22 10:08:37;;;;;;;;;;;;;;;23.42;94.94;101593.63;5007406;28;19921;-73
2023/06/22 10:11:05;;;;;;;;;;;;;;;23.34;96.70;101591.81;5014080;28;19925;-74
2023/06/22 10:13:30;;;;;;;;;;;;;;;23.30;95.56;101593.22;5001536;28;19928;-72
2023/06/22 10:15:56;;;;;;;;;;;;;;;23.33;97.17;101597.47;5012569;28;19957;-72
2023/06/22 10:18:21;;;;;;;;;;;;;;;23.27;99.01;101595.50;5011388;28;20019;-73
2023/06/22 10:20:52;;;;;;;;;;;;;;;23.27;100.00;101592.75;5012271;28;19985;-73
2023/06/22 10:23:18;;;;;;;;;;;;;;;23.28;100.00;101592.56;5025541;28;19925;-73
2023/06/22 10:25:43;;;;;;;;;;;;;;;23.15;100.00;101595.91;5015133;28;19922;-73
2023/06/22 10:28:08;;;;;;;;;;;;;;;23.24;100.00;101585.75;5006393;28;19921;-72
2023/06/22 10:30:33;;;;;;;;;;;;;;;23.25;100.00;101583.88;5015749;28;19967;-73
2023/06/22 10:32:59;;;;;;;;;;;;;;;23.22;100.00;101579.59;5008814;28;19952;-72
2023/06/22 10:35:24;;;;;;;;;;;;;;;23.25;100.00;101578.41;5004799;28;20004;-72
2023/06/22 10:37:50;;;;;;;;;;;;;;;23.29;100.00;101577.00;4944280;28;1821233;-72
2023/06/22 10:40:16;;;;;;;;;;;;;;;23.36;100.00;101564.22;5014948;28;19932;-73
2023/06/22 10:42:41;;;;;;;;;;;;;;;23.37;100.00;101568.66;5004612;28;19929;-72
2023/06/22 10:45:07;;;;;;;;;;;;;;;23.29;100.00;101564.13;5018216;28;19926;-73
2023/06/22 10:47:32;;;;;;;;;;;;;;;23.32;96.54;101557.41;5011841;28;19925;-73
2023/06/22 10:49:57;;;;;;;;;;;;;;;23.30;100.00;101560.34;5008951;28;20494;-73
2023/06/22 10:52:22;;;;;;;;;;;;;;;23.34;97.18;101561.69;5014251;28;20371;-74
2023/06/22 10:54:47;;;;;;;;;;;;;;;23.31;95.59;101566.66;5018417;28;20557;-75
2023/06/22 10:57:13;;;;;;;;;;;;;;;23.15;96.77;101543.03;5011533;28;20390;-74
2023/06/22 10:59:38;;;;;;;;;;;;;;;23.27;97.64;101571.69;5011936;28;20390;-73
2023/06/22 11:02:03;;;;;;;;;;;;;;;23.31;98.16;101564.78;5014701;28;19929;-73
2023/06/22 11:04:29;;;;;;;;;;;;;;;23.29;98.91;101568.78;5016044;28;19947;-74
2023/06/22 11:06:56;;;;;;;;;;;;;;;23.31;100.00;101569.41;5017740;28;19963;-74
2023/06/22 11:09:21;;;;;;;;;;;;;;;23.28;100.00;101573.38;5007224;28;19944;-74
2023/06/22 11:11:50;;;;;;;;;;;;;;;23.23;100.00;101580.47;4996202;28;20299;-74
2023/06/22 11:14:15;;;;;;;;;;;;;;;23.09;100.00;101582.09;5014002;28;20315;-72
2023/06/22 11:16:41;;;;;;;;;;;;;;;22.93;100.00;101597.63;5008643;28;19925;-74
2023/06/22 11:19:06;;;;;;;;;;;;;;;22.90;100.00;101598.84;5017508;28;19976;-74
2023/06/22 11:21:31;;;;;;;;;;;;;;;22.82;100.00;101607.13;5012879;28;19969;-74
2023/06/22 11:23:57;;;;;;;;;;;;;;;22.67;100.00;101608.94;5013500;28;20016;-74
2023/06/22 11:26:22;;;;;;;;;;;;;;;22.60;100.00;101617.88;5010011;28;19969;-73
2023/06/22 11:28:48;;;;;;;;;;;;;;;22.57;100.00;101614.66;5014893;28;19925;-73
2023/06/22 11:31:13;;;;;;;;;;;;;;;22.47;100.00;101614.88;5015059;28;19921;-73
2023/06/22 11:33:38;;;;;;;;;;;;;;;22.22;100.00;101616.84;5011057;28;20662;-72
2023/06/22 11:36:04;;;;;;;;;;;;;;;21.89;100.00;101631.50;5014950;28;20006;-72
2023/06/22 11:38:30;;;;;;;;;;;;;;;21.61;100.00;101631.00;5013953;28;19928;-72
2023/06/22 11:40:56;;;;;;;;;;;;;;;21.41;100.00;101634.13;5018929;28;19921;-72
2023/06/22 11:43:21;;;;;;;;;;;;;;;21.33;100.00;101628.66;5013918;28;19925;-72
2023/06/22 11:45:46;;;;;;;;;;;;;;;21.28;100.00;101616.38;5015951;28;19958;-72
2023/06/22 11:48:11;;;;;;;;;;;;;;;;;;5013027;28;20200;-72
2023/06/22 11:50:37;;;;;;;;;;;;;;;20.79;100.00;101614.47;5015209;28;19970;-72
2023/06/22 11:53:03;;;;;;;;;;;;;;;20.67;100.00;101622.09;5016060;28;19925;-72
2023/06/22 11:55:28;;;;;;;;;;;;;;;20.56;100.00;101632.47;5018085;28;19964;-72
2023/06/22 11:57:55;;;;;;;;;;;;;;;20.46;100.00;101632.63;5012043;28;19925;-72
2023/06/22 12:00:22;;;;;;;;;;;;;;;20.38;100.00;101633.47;5013560;28;19975;-71
2023/06/22 12:02:47;;;;;;;;;;;;;;;20.22;100.00;101635.09;5009028;28;19949;-72
2023/06/22 12:05:12;;;;;;;;;;;;;;;20.15;100.00;101650.38;5008783;28;19921;-71
2023/06/22 12:07:37;;;;;;;;;;;;;;;20.14;100.00;101645.94;5017645;28;20254;-71
2023/06/22 12:10:03;;;;;;;;;;;;;;;20.16;100.00;101646.66;5012536;28;20330;-71
2023/06/22 12:12:28;;;;;;;;;;;;;;;20.11;100.00;101649.03;5010325;28;19921;-72
2023/06/22 12:14:53;;;;;;;;;;;;;;;20.08;100.00;101639.28;5026525;28;19927;-71
2023/06/22 12:17:18;;;;;;;;;;;;;;;20.07;100.00;101632.13;5010307;28;19931;-72
2023/06/22 12:19:44;;;;;;;;;;;;;;;20.10;100.00;101608.28;5015558;28;19921;-72
2023/06/22 12:22:09;;;;;;;;;;;;;;;20.03;100.00;101570.78;5011976;28;19928;-75